Terminal Aerodrome Forecast
Issued by NWS Tallahassee, FL

Home | Current Version | Previous Version | Text Only | Print | Product List | Glossary On
Versions: 1 2 3 4 5 6 7 8 9 10 11 12 13 14 15
000
FTUS42 KTAE 012321
TAFTLH
TAF
KTLH 012321Z 0200/0224 24009KT P6SM SCT250
     FM020900 00000KT 4SM BR SCT005 BKN150
      TEMPO 0209/0213 2SM BR BKN005
     FM021500 12004KT P6SM SCT040 BKN150
     FM022000 14005KT P6SM SCT050 BKN150=

USA.gov is the U.S. government's official web portal to all federal, state and local government web resources and services.